sensor_id;sensor_type;location;lat;lon;timestamp;temperature;humidity
54540;SHT30;40438;52.992;18.604;2023-10-08T00:01:55;12.03;86.65
54540;SHT30;40438;52.992;18.604;2023-10-08T00:04:21;12.02;86.73
54540;SHT30;40438;52.992;18.604;2023-10-08T00:06:48;12.03;86.72
54540;SHT30;40438;52.992;18.604;2023-10-08T00:09:14;12.06;86.47
54540;SHT30;40438;52.992;18.604;2023-10-08T00:11:40;12.03;86.57
54540;SHT30;40438;52.992;18.604;2023-10-08T00:14:06;12.06;86.46
54540;SHT30;40438;52.992;18.604;2023-10-08T00:16:32;12.05;86.44
54540;SHT30;40438;52.992;18.604;2023-10-08T00:18:58;12.08;86.39
54540;SHT30;40438;52.992;18.604;2023-10-08T00:21:23;12.01;86.54
54540;SHT30;40438;52.992;18.604;2023-10-08T00:23:50;11.99;86.65
54540;SHT30;40438;52.992;18.604;2023-10-08T00:26:16;11.98;86.79
54540;SHT30;40438;52.992;18.604;2023-10-08T00:28:42;12.02;86.79
54540;SHT30;40438;52.992;18.604;2023-10-08T00:31:08;11.98;86.80
54540;SHT30;40438;52.992;18.604;2023-10-08T00:33:34;11.96;86.86
54540;SHT30;40438;52.992;18.604;2023-10-08T00:36:00;11.93;86.71
54540;SHT30;40438;52.992;18.604;2023-10-08T00:38:25;11.95;86.58
54540;SHT30;40438;52.992;18.604;2023-10-08T00:40:52;11.99;85.85
54540;SHT30;40438;52.992;18.604;2023-10-08T00:43:30;11.96;85.93
54540;SHT30;40438;52.992;18.604;2023-10-08T00:45:56;11.95;85.90
54540;SHT30;40438;52.992;18.604;2023-10-08T00:48:22;11.95;85.62
54540;SHT30;40438;52.992;18.604;2023-10-08T00:50:48;11.99;85.28
54540;SHT30;40438;52.992;18.604;2023-10-08T00:53:13;12.02;84.93
54540;SHT30;40438;52.992;18.604;2023-10-08T00:55:39;11.98;84.83
54540;SHT30;40438;52.992;18.604;2023-10-08T00:58:06;11.99;84.76
54540;SHT30;40438;52.992;18.604;2023-10-08T01:00:34;11.96;84.92
54540;SHT30;40438;52.992;18.604;2023-10-08T01:03:00;11.98;84.84
54540;SHT30;40438;52.992;18.604;2023-10-08T01:05:26;11.95;85.02
54540;SHT30;40438;52.992;18.604;2023-10-08T01:07:52;11.92;85.01
54540;SHT30;40438;52.992;18.604;2023-10-08T01:10:19;11.92;84.95
54540;SHT30;40438;52.992;18.604;2023-10-08T01:12:45;11.91;84.57
54540;SHT30;40438;52.992;18.604;2023-10-08T01:15:13;11.93;84.54
54540;SHT30;40438;52.992;18.604;2023-10-08T01:17:39;11.84;83.84
54540;SHT30;40438;52.992;18.604;2023-10-08T01:20:05;11.85;83.72
54540;SHT30;40438;52.992;18.604;2023-10-08T01:22:33;11.78;82.57
54540;SHT30;40438;52.992;18.604;2023-10-08T01:24:59;11.74;81.31
54540;SHT30;40438;52.992;18.604;2023-10-08T01:27:29;11.71;81.11
54540;SHT30;40438;52.992;18.604;2023-10-08T01:29:55;11.67;80.47
54540;SHT30;40438;52.992;18.604;2023-10-08T01:32:21;11.67;80.10
54540;SHT30;40438;52.992;18.604;2023-10-08T01:34:47;11.65;79.19
54540;SHT30;40438;52.992;18.604;2023-10-08T01:37:14;11.64;78.77
54540;SHT30;40438;52.992;18.604;2023-10-08T01:39:42;11.61;78.10
54540;SHT30;40438;52.992;18.604;2023-10-08T01:42:08;11.61;77.63
54540;SHT30;40438;52.992;18.604;2023-10-08T01:44:34;11.54;77.52
54540;SHT30;40438;52.992;18.604;2023-10-08T01:46:59;11.50;76.32
54540;SHT30;40438;52.992;18.604;2023-10-08T01:49:25;11.44;75.91
54540;SHT30;40438;52.992;18.604;2023-10-08T01:51:51;11.42;75.37
54540;SHT30;40438;52.992;18.604;2023-10-08T01:54:17;11.40;75.05
54540;SHT30;40438;52.992;18.604;2023-10-08T01:56:44;11.36;74.91
54540;SHT30;40438;52.992;18.604;2023-10-08T01:59:10;11.27;74.15
54540;SHT30;40438;52.992;18.604;2023-10-08T02:01:36;11.26;73.76
54540;SHT30;40438;52.992;18.604;2023-10-08T02:04:02;11.22;73.73
54540;SHT30;40438;52.992;18.604;2023-10-08T02:06:28;11.22;73.43
54540;SHT30;40438;52.992;18.604;2023-10-08T02:08:54;11.22;73.28
54540;SHT30;40438;52.992;18.604;2023-10-08T02:11:20;11.17;73.66
54540;SHT30;40438;52.992;18.604;2023-10-08T02:13:47;11.16;73.65
54540;SHT30;40438;52.992;18.604;2023-10-08T02:16:18;11.12;73.10
54540;SHT30;40438;52.992;18.604;2023-10-08T02:18:43;11.12;73.05
54540;SHT30;40438;52.992;18.604;2023-10-08T02:21:09;11.09;72.92
54540;SHT30;40438;52.992;18.604;2023-10-08T02:23:35;11.06;72.87
54540;SHT30;40438;52.992;18.604;2023-10-08T02:26:01;11.07;72.77
54540;SHT30;40438;52.992;18.604;2023-10-08T02:28:27;11.06;72.46
54540;SHT30;40438;52.992;18.604;2023-10-08T02:30:55;11.03;72.27
54540;SHT30;40438;52.992;18.604;2023-10-08T02:33:20;11.06;71.64
54540;SHT30;40438;52.992;18.604;2023-10-08T02:35:47;11.05;71.34
54540;SHT30;40438;52.992;18.604;2023-10-08T02:38:14;10.97;71.43
54540;SHT30;40438;52.992;18.604;2023-10-08T02:40:40;10.95;71.58
54540;SHT30;40438;52.992;18.604;2023-10-08T02:43:06;10.93;70.91
54540;SHT30;40438;52.992;18.604;2023-10-08T02:45:31;10.91;70.88
54540;SHT30;40438;52.992;18.604;2023-10-08T02:47:59;10.85;70.52
54540;SHT30;40438;52.992;18.604;2023-10-08T02:50:24;10.88;70.32
54540;SHT30;40438;52.992;18.604;2023-10-08T02:52:50;10.76;69.85
54540;SHT30;40438;52.992;18.604;2023-10-08T02:55:16;10.74;69.97
54540;SHT30;40438;52.992;18.604;2023-10-08T02:57:42;10.78;69.76
54540;SHT30;40438;52.992;18.604;2023-10-08T03:00:09;10.78;69.55
54540;SHT30;40438;52.992;18.604;2023-10-08T03:02:35;10.72;69.73
54540;SHT30;40438;52.992;18.604;2023-10-08T03:05:02;10.68;69.76
54540;SHT30;40438;52.992;18.604;2023-10-08T03:07:28;10.60;69.62
54540;SHT30;40438;52.992;18.604;2023-10-08T03:09:54;10.55;69.45
54540;SHT30;40438;52.992;18.604;2023-10-08T03:12:20;10.44;69.85
54540;SHT30;40438;52.992;18.604;2023-10-08T03:14:46;10.41;69.93
54540;SHT30;40438;52.992;18.604;2023-10-08T03:17:11;10.37;69.31
54540;SHT30;40438;52.992;18.604;2023-10-08T03:19:37;10.38;68.92
54540;SHT30;40438;52.992;18.604;2023-10-08T03:22:04;10.27;68.82
54540;SHT30;40438;52.992;18.604;2023-10-08T03:24:30;10.10;67.91
54540;SHT30;40438;52.992;18.604;2023-10-08T03:26:56;10.13;67.83
54540;SHT30;40438;52.992;18.604;2023-10-08T03:29:22;10.02;67.46
54540;SHT30;40438;52.992;18.604;2023-10-08T03:31:47;10.02;67.84
54540;SHT30;40438;52.992;18.604;2023-10-08T03:34:17;9.95;68.08
54540;SHT30;40438;52.992;18.604;2023-10-08T03:36:43;9.89;67.84
54540;SHT30;40438;52.992;18.604;2023-10-08T03:39:11;9.85;67.84
54540;SHT30;40438;52.992;18.604;2023-10-08T03:41:36;9.83;67.44
54540;SHT30;40438;52.992;18.604;2023-10-08T03:44:03;9.76;66.02
54540;SHT30;40438;52.992;18.604;2023-10-08T03:46:29;9.69;65.88
54540;SHT30;40438;52.992;18.604;2023-10-08T03:48:55;9.69;66.23
54540;SHT30;40438;52.992;18.604;2023-10-08T03:51:21;9.65;65.35
54540;SHT30;40438;52.992;18.604;2023-10-08T03:53:48;9.63;65.03
54540;SHT30;40438;52.992;18.604;2023-10-08T03:56:15;9.61;64.62
54540;SHT30;40438;52.992;18.604;2023-10-08T03:58:41;9.56;64.72
54540;SHT30;40438;52.992;18.604;2023-10-08T04:01:06;9.52;64.79
54540;SHT30;40438;52.992;18.604;2023-10-08T04:03:32;9.49;64.68
54540;SHT30;40438;52.992;18.604;2023-10-08T04:05:58;9.46;64.37
54540;SHT30;40438;52.992;18.604;2023-10-08T04:08:24;9.42;64.60
54540;SHT30;40438;52.992;18.604;2023-10-08T04:10:49;9.39;64.93
54540;SHT30;40438;52.992;18.604;2023-10-08T04:13:17;9.37;65.04
54540;SHT30;40438;52.992;18.604;2023-10-08T04:15:42;9.38;65.17
54540;SHT30;40438;52.992;18.604;2023-10-08T04:18:08;9.34;65.43
54540;SHT30;40438;52.992;18.604;2023-10-08T04:20:34;9.30;65.44
54540;SHT30;40438;52.992;18.604;2023-10-08T04:23:00;9.25;65.70
54540;SHT30;40438;52.992;18.604;2023-10-08T04:25:27;9.24;65.44
54540;SHT30;40438;52.992;18.604;2023-10-08T04:27:53;9.21;65.53
54540;SHT30;40438;52.992;18.604;2023-10-08T04:30:20;9.18;65.38
54540;SHT30;40438;52.992;18.604;2023-10-08T04:32:46;9.18;65.47
54540;SHT30;40438;52.992;18.604;2023-10-08T04:35:12;9.13;65.36
54540;SHT30;40438;52.992;18.604;2023-10-08T04:37:38;9.14;65.35
54540;SHT30;40438;52.992;18.604;2023-10-08T04:40:05;9.11;65.41
54540;SHT30;40438;52.992;18.604;2023-10-08T04:42:31;9.13;65.31
54540;SHT30;40438;52.992;18.604;2023-10-08T04:44:56;9.10;65.45
54540;SHT30;40438;52.992;18.604;2023-10-08T04:47:24;9.06;65.58
54540;SHT30;40438;52.992;18.604;2023-10-08T04:49:50;9.03;65.53
54540;SHT30;40438;52.992;18.604;2023-10-08T04:52:15;9.04;65.84
54540;SHT30;40438;52.992;18.604;2023-10-08T04:54:42;8.97;65.69
54540;SHT30;40438;52.992;18.604;2023-10-08T04:57:08;8.96;65.86
54540;SHT30;40438;52.992;18.604;2023-10-08T04:59:33;8.97;65.84
54540;SHT30;40438;52.992;18.604;2023-10-08T05:02:00;8.94;65.57
54540;SHT30;40438;52.992;18.604;2023-10-08T05:04:27;8.93;65.39
54540;SHT30;40438;52.992;18.604;2023-10-08T05:06:53;8.90;65.37
54540;SHT30;40438;52.992;18.604;2023-10-08T05:09:19;8.90;65.58
54540;SHT30;40438;52.992;18.604;2023-10-08T05:11:45;8.86;65.67
54540;SHT30;40438;52.992;18.604;2023-10-08T05:14:11;8.90;65.72
54540;SHT30;40438;52.992;18.604;2023-10-08T05:16:37;8.87;65.94
54540;SHT30;40438;52.992;18.604;2023-10-08T05:19:03;8.80;66.08
54540;SHT30;40438;52.992;18.604;2023-10-08T05:21:30;8.87;65.98
54540;SHT30;40438;52.992;18.604;2023-10-08T05:23:56;8.87;65.81
54540;SHT30;40438;52.992;18.604;2023-10-08T05:26:21;8.87;66.11
54540;SHT30;40438;52.992;18.604;2023-10-08T05:28:47;8.81;66.51
54540;SHT30;40438;52.992;18.604;2023-10-08T05:31:14;8.83;66.87
54540;SHT30;40438;52.992;18.604;2023-10-08T05:33:40;8.86;67.16
54540;SHT30;40438;52.992;18.604;2023-10-08T05:36:06;8.87;66.51
54540;SHT30;40438;52.992;18.604;2023-10-08T05:38:33;8.85;66.43
54540;SHT30;40438;52.992;18.604;2023-10-08T05:40:59;8.79;66.69
54540;SHT30;40438;52.992;18.604;2023-10-08T05:43:27;8.79;66.49
54540;SHT30;40438;52.992;18.604;2023-10-08T05:45:53;8.77;66.73
54540;SHT30;40438;52.992;18.604;2023-10-08T05:48:19;8.76;66.83
54540;SHT30;40438;52.992;18.604;2023-10-08T05:50:44;8.75;66.86
54540;SHT30;40438;52.992;18.604;2023-10-08T05:53:10;8.70;67.08
54540;SHT30;40438;52.992;18.604;2023-10-08T05:55:37;8.79;67.01
54540;SHT30;40438;52.992;18.604;2023-10-08T05:58:05;8.75;67.31
54540;SHT30;40438;52.992;18.604;2023-10-08T06:00:31;8.76;66.98
54540;SHT30;40438;52.992;18.604;2023-10-08T06:02:57;8.81;66.67
54540;SHT30;40438;52.992;18.604;2023-10-08T06:05:22;8.79;66.73
54540;SHT30;40438;52.992;18.604;2023-10-08T06:07:50;8.85;66.00
54540;SHT30;40438;52.992;18.604;2023-10-08T06:10:16;8.87;65.50
54540;SHT30;40438;52.992;18.604;2023-10-08T06:12:43;8.87;65.45
54540;SHT30;40438;52.992;18.604;2023-10-08T06:15:09;8.89;65.15
54540;SHT30;40438;52.992;18.604;2023-10-08T06:17:35;8.86;65.44
54540;SHT30;40438;52.992;18.604;2023-10-08T06:20:02;8.89;65.28
54540;SHT30;40438;52.992;18.604;2023-10-08T06:22:27;8.92;65.37
54540;SHT30;40438;52.992;18.604;2023-10-08T06:24:53;8.99;64.99
54540;SHT30;40438;52.992;18.604;2023-10-08T06:27:19;9.03;64.56
54540;SHT30;40438;52.992;18.604;2023-10-08T06:29:46;8.99;64.56
54540;SHT30;40438;52.992;18.604;2023-10-08T06:32:12;9.00;64.61
54540;SHT30;40438;52.992;18.604;2023-10-08T06:34:37;9.01;64.35
54540;SHT30;40438;52.992;18.604;2023-10-08T06:37:03;9.08;63.83
54540;SHT30;40438;52.992;18.604;2023-10-08T06:39:29;9.18;63.43
54540;SHT30;40438;52.992;18.604;2023-10-08T06:41:55;9.16;63.95
54540;SHT30;40438;52.992;18.604;2023-10-08T06:44:26;9.24;63.30
54540;SHT30;40438;52.992;18.604;2023-10-08T06:46:54;9.27;63.04
54540;SHT30;40438;52.992;18.604;2023-10-08T06:49:20;9.30;63.10
54540;SHT30;40438;52.992;18.604;2023-10-08T06:51:46;9.42;62.67
54540;SHT30;40438;52.992;18.604;2023-10-08T06:54:11;9.46;62.66
54540;SHT30;40438;52.992;18.604;2023-10-08T06:56:37;9.52;62.16
54540;SHT30;40438;52.992;18.604;2023-10-08T06:59:03;9.65;62.22
54540;SHT30;40438;52.992;18.604;2023-10-08T07:01:29;9.70;61.54
54540;SHT30;40438;52.992;18.604;2023-10-08T07:03:56;9.89;61.54
54540;SHT30;40438;52.992;18.604;2023-10-08T07:06:22;10.30;59.86
54540;SHT30;40438;52.992;18.604;2023-10-08T07:08:47;11.79;56.00
54540;SHT30;40438;52.992;18.604;2023-10-08T07:11:13;13.18;51.48
54540;SHT30;40438;52.992;18.604;2023-10-08T07:13:39;14.31;48.76
54540;SHT30;40438;52.992;18.604;2023-10-08T07:16:05;15.28;46.15
54540;SHT30;40438;52.992;18.604;2023-10-08T07:18:31;15.78;44.30
54540;SHT30;40438;52.992;18.604;2023-10-08T07:20:58;15.82;43.85
54540;SHT30;40438;52.992;18.604;2023-10-08T07:23:24;15.14;45.16
54540;SHT30;40438;52.992;18.604;2023-10-08T07:25:53;14.42;47.18
54540;SHT30;40438;52.992;18.604;2023-10-08T07:28:20;13.93;48.23
54540;SHT30;40438;52.992;18.604;2023-10-08T07:30:45;13.77;49.25
54540;SHT30;40438;52.992;18.604;2023-10-08T07:33:11;13.61;48.32
54540;SHT30;40438;52.992;18.604;2023-10-08T07:35:37;13.44;48.78
54540;SHT30;40438;52.992;18.604;2023-10-08T07:38:04;13.67;48.22
54540;SHT30;40438;52.992;18.604;2023-10-08T07:40:30;14.69;46.19
54540;SHT30;40438;52.992;18.604;2023-10-08T07:42:56;16.27;42.10
54540;SHT30;40438;52.992;18.604;2023-10-08T07:45:22;17.28;39.49
54540;SHT30;40438;52.992;18.604;2023-10-08T07:47:47;18.34;37.69
54540;SHT30;40438;52.992;18.604;2023-10-08T07:50:14;18.74;36.29
54540;SHT30;40438;52.992;18.604;2023-10-08T07:52:39;19.08;36.15
54540;SHT30;40438;52.992;18.604;2023-10-08T07:55:07;19.21;35.45
54540;SHT30;40438;52.992;18.604;2023-10-08T07:57:33;19.19;35.12
54540;SHT30;40438;52.992;18.604;2023-10-08T07:59:59;19.45;35.06
54540;SHT30;40438;52.992;18.604;2023-10-08T08:02:25;19.41;34.70
54540;SHT30;40438;52.992;18.604;2023-10-08T08:04:51;19.66;34.45
54540;SHT30;40438;52.992;18.604;2023-10-08T08:07:17;19.49;34.74
54540;SHT30;40438;52.992;18.604;2023-10-08T08:09:43;19.42;33.80
54540;SHT30;40438;52.992;18.604;2023-10-08T08:12:10;19.73;33.82
54540;SHT30;40438;52.992;18.604;2023-10-08T08:14:36;20.03;33.97
54540;SHT30;40438;52.992;18.604;2023-10-08T08:17:02;20.15;33.44
54540;SHT30;40438;52.992;18.604;2023-10-08T08:19:27;19.56;33.30
54540;SHT30;40438;52.992;18.604;2023-10-08T08:21:53;19.05;32.67
54540;SHT30;40438;52.992;18.604;2023-10-08T08:24:19;18.43;34.02
54540;SHT30;40438;52.992;18.604;2023-10-08T08:26:45;18.36;34.64
54540;SHT30;40438;52.992;18.604;2023-10-08T08:29:12;17.84;35.87
54540;SHT30;40438;52.992;18.604;2023-10-08T08:31:38;17.28;36.80
54540;SHT30;40438;52.992;18.604;2023-10-08T08:34:03;16.89;37.06
54540;SHT30;40438;52.992;18.604;2023-10-08T08:36:30;16.61;37.20
54540;SHT30;40438;52.992;18.604;2023-10-08T08:38:56;16.48;36.99
54540;SHT30;40438;52.992;18.604;2023-10-08T08:41:22;16.37;37.76
54540;SHT30;40438;52.992;18.604;2023-10-08T08:43:49;16.34;37.28
54540;SHT30;40438;52.992;18.604;2023-10-08T08:46:17;16.07;37.59
54540;SHT30;40438;52.992;18.604;2023-10-08T08:48:43;15.99;37.75
54540;SHT30;40438;52.992;18.604;2023-10-08T08:51:09;16.09;38.08
54540;SHT30;40438;52.992;18.604;2023-10-08T08:53:35;15.97;37.08
54540;SHT30;40438;52.992;18.604;2023-10-08T08:56:01;15.83;38.31
54540;SHT30;40438;52.992;18.604;2023-10-08T08:58:27;16.00;37.33
54540;SHT30;40438;52.992;18.604;2023-10-08T09:00:53;16.06;37.90
54540;SHT30;40438;52.992;18.604;2023-10-08T09:03:21;16.16;37.96
54540;SHT30;40438;52.992;18.604;2023-10-08T09:05:47;16.59;37.36
54540;SHT30;40438;52.992;18.604;2023-10-08T09:08:12;16.54;36.22
54540;SHT30;40438;52.992;18.604;2023-10-08T09:10:38;16.49;36.49
54540;SHT30;40438;52.992;18.604;2023-10-08T09:13:05;16.34;36.76
54540;SHT30;40438;52.992;18.604;2023-10-08T09:15:31;16.33;36.22
54540;SHT30;40438;52.992;18.604;2023-10-08T09:17:58;16.42;35.18
54540;SHT30;40438;52.992;18.604;2023-10-08T09:20:25;16.33;35.62
54540;SHT30;40438;52.992;18.604;2023-10-08T09:23:05;16.37;35.77
54540;SHT30;40438;52.992;18.604;2023-10-08T09:25:31;16.42;36.46
54540;SHT30;40438;52.992;18.604;2023-10-08T09:27:57;16.45;35.61
54540;SHT30;40438;52.992;18.604;2023-10-08T09:30:23;16.67;35.89
54540;SHT30;40438;52.992;18.604;2023-10-08T09:32:48;16.79;35.82
54540;SHT30;40438;52.992;18.604;2023-10-08T09:35:15;16.99;36.13
54540;SHT30;40438;52.992;18.604;2023-10-08T09:37:43;17.23;36.48
54540;SHT30;40438;52.992;18.604;2023-10-08T09:40:11;17.28;35.02
54540;SHT30;40438;52.992;18.604;2023-10-08T09:42:37;17.33;35.33
54540;SHT30;40438;52.992;18.604;2023-10-08T09:45:04;17.30;35.56
54540;SHT30;40438;52.992;18.604;2023-10-08T09:47:31;17.20;35.52
54540;SHT30;40438;52.992;18.604;2023-10-08T09:50:02;17.23;35.02
54540;SHT30;40438;52.992;18.604;2023-10-08T09:52:33;17.36;33.95
54540;SHT30;40438;52.992;18.604;2023-10-08T09:55:08;17.48;33.91
54540;SHT30;40438;52.992;18.604;2023-10-08T09:57:33;17.63;34.64
54540;SHT30;40438;52.992;18.604;2023-10-08T09:59:59;17.57;32.86
54540;SHT30;40438;52.992;18.604;2023-10-08T10:02:26;17.38;33.14
54540;SHT30;40438;52.992;18.604;2023-10-08T10:04:51;17.51;33.86
54540;SHT30;40438;52.992;18.604;2023-10-08T10:07:18;17.63;34.37
54540;SHT30;40438;52.992;18.604;2023-10-08T10:09:45;17.86;33.77
54540;SHT30;40438;52.992;18.604;2023-10-08T10:12:15;17.85;32.56
54540;SHT30;40438;52.992;18.604;2023-10-08T10:14:46;17.89;32.35
54540;SHT30;40438;52.992;18.604;2023-10-08T10:17:17;17.94;33.03
54540;SHT30;40438;52.992;18.604;2023-10-08T10:19:44;17.99;33.77
54540;SHT30;40438;52.992;18.604;2023-10-08T10:22:11;18.25;32.93
54540;SHT30;40438;52.992;18.604;2023-10-08T10:24:36;18.33;32.94
54540;SHT30;40438;52.992;18.604;2023-10-08T10:27:14;18.25;32.55
54540;SHT30;40438;52.992;18.604;2023-10-08T10:29:40;18.13;31.96
54540;SHT30;40438;52.992;18.604;2023-10-08T10:32:06;18.17;31.40
54540;SHT30;40438;52.992;18.604;2023-10-08T10:34:32;18.20;31.28
54540;SHT30;40438;52.992;18.604;2023-10-08T10:36:59;18.34;32.24
54540;SHT30;40438;52.992;18.604;2023-10-08T10:39:26;18.17;31.55
54540;SHT30;40438;52.992;18.604;2023-10-08T10:41:53;18.39;31.71
54540;SHT30;40438;52.992;18.604;2023-10-08T10:44:20;18.53;31.49
54540;SHT30;40438;52.992;18.604;2023-10-08T10:46:46;18.70;30.68
54540;SHT30;40438;52.992;18.604;2023-10-08T10:49:12;18.59;31.44
54540;SHT30;40438;52.992;18.604;2023-10-08T10:51:37;18.53;30.93
54540;SHT30;40438;52.992;18.604;2023-10-08T10:54:03;18.39;31.36
54540;SHT30;40438;52.992;18.604;2023-10-08T10:56:29;18.20;30.37
54540;SHT30;40438;52.992;18.604;2023-10-08T10:58:59;18.27;31.04
54540;SHT30;40438;52.992;18.604;2023-10-08T11:01:27;18.06;31.67
54540;SHT30;40438;52.992;18.604;2023-10-08T11:03:53;18.08;30.45
54540;SHT30;40438;52.992;18.604;2023-10-08T11:06:22;18.30;30.54
54540;SHT30;40438;52.992;18.604;2023-10-08T11:08:49;18.29;31.07
54540;SHT30;40438;52.992;18.604;2023-10-08T11:11:17;18.23;32.67
54540;SHT30;40438;52.992;18.604;2023-10-08T11:13:43;18.06;33.75
54540;SHT30;40438;52.992;18.604;2023-10-08T11:16:09;18.15;29.92
54540;SHT30;40438;52.992;18.604;2023-10-08T11:18:42;18.26;30.60
54540;SHT30;40438;52.992;18.604;2023-10-08T11:21:10;18.52;31.08
54540;SHT30;40438;52.992;18.604;2023-10-08T11:23:37;18.78;31.76
54540;SHT30;40438;52.992;18.604;2023-10-08T11:26:04;18.99;30.47
54540;SHT30;40438;52.992;18.604;2023-10-08T11:28:33;19.15;30.44
54540;SHT30;40438;52.992;18.604;2023-10-08T11:30:59;19.22;29.98
54540;SHT30;40438;52.992;18.604;2023-10-08T11:33:25;19.32;29.13
54540;SHT30;40438;52.992;18.604;2023-10-08T11:36:00;19.33;27.94
54540;SHT30;40438;52.992;18.604;2023-10-08T11:38:26;19.32;25.55
54540;SHT30;40438;52.992;18.604;2023-10-08T11:40:52;19.11;27.12
54540;SHT30;40438;52.992;18.604;2023-10-08T11:43:17;19.01;27.25
54540;SHT30;40438;52.992;18.604;2023-10-08T11:45:44;19.14;27.73
54540;SHT30;40438;52.992;18.604;2023-10-08T11:48:09;19.49;27.76
54540;SHT30;40438;52.992;18.604;2023-10-08T11:50:35;19.60;27.49
54540;SHT30;40438;52.992;18.604;2023-10-08T11:53:03;19.60;27.60
54540;SHT30;40438;52.992;18.604;2023-10-08T11:55:29;19.28;27.46
54540;SHT30;40438;52.992;18.604;2023-10-08T11:57:55;19.50;27.94
54540;SHT30;40438;52.992;18.604;2023-10-08T12:00:21;19.49;26.99
54540;SHT30;40438;52.992;18.604;2023-10-08T12:02:46;19.46;26.81
54540;SHT30;40438;52.992;18.604;2023-10-08T12:05:12;19.31;26.03
54540;SHT30;40438;52.992;18.604;2023-10-08T12:07:38;19.36;27.65
54540;SHT30;40438;52.992;18.604;2023-10-08T12:10:06;19.39;27.03
54540;SHT30;40438;52.992;18.604;2023-10-08T12:12:32;19.39;26.76
54540;SHT30;40438;52.992;18.604;2023-10-08T12:14:58;19.31;26.44
54540;SHT30;40438;52.992;18.604;2023-10-08T12:17:24;19.26;27.20
54540;SHT30;40438;52.992;18.604;2023-10-08T12:19:49;19.25;26.39
54540;SHT30;40438;52.992;18.604;2023-10-08T12:22:15;19.14;26.63
54540;SHT30;40438;52.992;18.604;2023-10-08T12:24:41;19.18;26.81
54540;SHT30;40438;52.992;18.604;2023-10-08T12:27:08;19.45;26.57
54540;SHT30;40438;52.992;18.604;2023-10-08T12:29:34;19.35;26.15
54540;SHT30;40438;52.992;18.604;2023-10-08T12:32:00;19.32;25.53
54540;SHT30;40438;52.992;18.604;2023-10-08T12:34:25;19.22;26.68
54540;SHT30;40438;52.992;18.604;2023-10-08T12:36:51;19.12;25.48
54540;SHT30;40438;52.992;18.604;2023-10-08T12:39:17;19.05;26.65
54540;SHT30;40438;52.992;18.604;2023-10-08T12:41:43;19.09;26.69
54540;SHT30;40438;52.992;18.604;2023-10-08T12:44:10;19.21;26.57
54540;SHT30;40438;52.992;18.604;2023-10-08T12:46:36;19.16;26.30
54540;SHT30;40438;52.992;18.604;2023-10-08T12:49:02;19.23;25.66
54540;SHT30;40438;52.992;18.604;2023-10-08T12:51:29;19.12;26.14
54540;SHT30;40438;52.992;18.604;2023-10-08T12:53:55;18.71;26.24
54540;SHT30;40438;52.992;18.604;2023-10-08T12:56:20;18.78;26.84
54540;SHT30;40438;52.992;18.604;2023-10-08T12:58:47;18.75;26.55
54540;SHT30;40438;52.992;18.604;2023-10-08T13:01:14;18.84;26.56
54540;SHT30;40438;52.992;18.604;2023-10-08T13:03:40;18.80;26.33
54540;SHT30;40438;52.992;18.604;2023-10-08T13:06:06;18.78;25.57
54540;SHT30;40438;52.992;18.604;2023-10-08T13:08:34;18.52;26.20
54540;SHT30;40438;52.992;18.604;2023-10-08T13:11:00;18.47;26.61
54540;SHT30;40438;52.992;18.604;2023-10-08T13:13:25;18.25;26.71
54540;SHT30;40438;52.992;18.604;2023-10-08T13:15:51;18.12;27.17
54540;SHT30;40438;52.992;18.604;2023-10-08T13:18:19;18.26;27.67
54540;SHT30;40438;52.992;18.604;2023-10-08T13:20:44;18.36;27.24
54540;SHT30;40438;52.992;18.604;2023-10-08T13:23:10;18.44;26.66
54540;SHT30;40438;52.992;18.604;2023-10-08T13:25:36;17.96;26.85
54540;SHT30;40438;52.992;18.604;2023-10-08T13:28:02;18.02;27.08
54540;SHT30;40438;52.992;18.604;2023-10-08T13:30:28;18.17;26.55
54540;SHT30;40438;52.992;18.604;2023-10-08T13:32:53;18.16;26.79
54540;SHT30;40438;52.992;18.604;2023-10-08T13:35:21;18.06;27.37
54540;SHT30;40438;52.992;18.604;2023-10-08T13:37:46;18.10;27.01
54540;SHT30;40438;52.992;18.604;2023-10-08T13:40:12;17.89;26.81
54540;SHT30;40438;52.992;18.604;2023-10-08T13:42:38;18.04;26.19
54540;SHT30;40438;52.992;18.604;2023-10-08T13:45:05;17.75;25.97
54540;SHT30;40438;52.992;18.604;2023-10-08T13:47:31;17.71;26.46
54540;SHT30;40438;52.992;18.604;2023-10-08T13:49:56;17.85;26.62
54540;SHT30;40438;52.992;18.604;2023-10-08T13:52:24;17.64;27.23
54540;SHT30;40438;52.992;18.604;2023-10-08T13:54:49;17.51;27.33
54540;SHT30;40438;52.992;18.604;2023-10-08T13:57:15;17.44;27.23
54540;SHT30;40438;52.992;18.604;2023-10-08T13:59:41;17.37;27.31
54540;SHT30;40438;52.992;18.604;2023-10-08T14:02:07;17.34;27.54
54540;SHT30;40438;52.992;18.604;2023-10-08T14:04:32;17.28;28.01
54540;SHT30;40438;52.992;18.604;2023-10-08T14:06:58;17.23;28.16
54540;SHT30;40438;52.992;18.604;2023-10-08T14:09:25;17.37;28.33
54540;SHT30;40438;52.992;18.604;2023-10-08T14:11:51;17.20;28.26
54540;SHT30;40438;52.992;18.604;2023-10-08T14:14:17;17.22;28.83
54540;SHT30;40438;52.992;18.604;2023-10-08T14:16:43;16.96;29.30
54540;SHT30;40438;52.992;18.604;2023-10-08T14:19:09;16.98;29.14
54540;SHT30;40438;52.992;18.604;2023-10-08T14:21:35;17.02;28.91
54540;SHT30;40438;52.992;18.604;2023-10-08T14:24:02;16.98;28.89
54540;SHT30;40438;52.992;18.604;2023-10-08T14:26:29;16.89;29.58
54540;SHT30;40438;52.992;18.604;2023-10-08T14:28:55;16.72;29.30
54540;SHT30;40438;52.992;18.604;2023-10-08T14:31:21;16.73;29.16
54540;SHT30;40438;52.992;18.604;2023-10-08T14:33:47;16.58;28.96
54540;SHT30;40438;52.992;18.604;2023-10-08T14:36:13;16.31;29.22
54540;SHT30;40438;52.992;18.604;2023-10-08T14:38:39;16.31;29.21
54540;SHT30;40438;52.992;18.604;2023-10-08T14:41:04;16.23;29.01
54540;SHT30;40438;52.992;18.604;2023-10-08T14:43:32;16.26;28.84
54540;SHT30;40438;52.992;18.604;2023-10-08T14:45:57;16.23;29.48
54540;SHT30;40438;52.992;18.604;2023-10-08T14:48:24;16.28;29.33
54540;SHT30;40438;52.992;18.604;2023-10-08T14:50:50;16.17;29.34
54540;SHT30;40438;52.992;18.604;2023-10-08T14:53:16;16.20;30.21
54540;SHT30;40438;52.992;18.604;2023-10-08T14:55:42;15.99;30.95
54540;SHT30;40438;52.992;18.604;2023-10-08T14:58:08;15.99;30.48
54540;SHT30;40438;52.992;18.604;2023-10-08T15:00:35;15.72;30.54
54540;SHT30;40438;52.992;18.604;2023-10-08T15:03:02;15.49;30.16
54540;SHT30;40438;52.992;18.604;2023-10-08T15:05:28;15.24;30.79
54540;SHT30;40438;52.992;18.604;2023-10-08T15:07:54;15.04;31.54
54540;SHT30;40438;52.992;18.604;2023-10-08T15:10:20;14.94;32.81
54540;SHT30;40438;52.992;18.604;2023-10-08T15:12:46;14.93;32.77
54540;SHT30;40438;52.992;18.604;2023-10-08T15:15:12;14.83;32.89